sensor_id;sensor_type;location;lat;lon;timestamp;pressure;altitude;pressure_sealevel;temperature;humidity
14269;BME280;7218;51.480;7.006;2023-04-02T00:01:54;99837.78;;;11.11;88.60
14269;BME280;7218;51.480;7.006;2023-04-02T00:04:41;99845.81;;;11.05;88.68
14269;BME280;7218;51.480;7.006;2023-04-02T00:07:25;99849.06;;;11.43;87.38
14269;BME280;7218;51.480;7.006;2023-04-02T00:09:55;99856.44;;;11.29;88.25
14269;BME280;7218;51.480;7.006;2023-04-02T00:12:22;99866.72;;;11.35;88.27
14269;BME280;7218;51.480;7.006;2023-04-02T00:14:52;99856.75;;;11.47;87.07
14269;BME280;7218;51.480;7.006;2023-04-02T00:17:22;99870.94;;;11.39;86.97
14269;BME280;7218;51.480;7.006;2023-04-02T00:19:53;99872.69;;;11.38;86.57
14269;BME280;7218;51.480;7.006;2023-04-02T00:22:25;99882.72;;;11.22;87.60
14269;BME280;7218;51.480;7.006;2023-04-02T00:24:54;99886.44;;;11.14;87.13
14269;BME280;7218;51.480;7.006;2023-04-02T00:27:21;99892.56;;;11.13;87.83
14269;BME280;7218;51.480;7.006;2023-04-02T00:29:49;99895.19;;;11.11;86.78
14269;BME280;7218;51.480;7.006;2023-04-02T00:32:21;99908.19;;;11.14;86.53
14269;BME280;7218;51.480;7.006;2023-04-02T00:34:48;99910.72;;;10.85;87.84
14269;BME280;7218;51.480;7.006;2023-04-02T00:37:17;99924.97;;;11.04;86.48
14269;BME280;7218;51.480;7.006;2023-04-02T00:39:51;99916.31;;;11.02;87.72
14269;BME280;7218;51.480;7.006;2023-04-02T00:42:18;99927.09;;;11.21;86.81
14269;BME280;7218;51.480;7.006;2023-04-02T00:44:47;99930.97;;;11.08;85.75
14269;BME280;7218;51.480;7.006;2023-04-02T00:47:20;99941.41;;;11.08;86.84
14269;BME280;7218;51.480;7.006;2023-04-02T00:49:50;99934.88;;;10.92;87.58
14269;BME280;7218;51.480;7.006;2023-04-02T00:52:22;99946.56;;;10.77;86.04
14269;BME280;7218;51.480;7.006;2023-04-02T00:54:56;99940.38;;;11.13;85.58
14269;BME280;7218;51.480;7.006;2023-04-02T00:57:25;99947.91;;;10.92;86.33
14269;BME280;7218;51.480;7.006;2023-04-02T00:59:58;99952.06;;;11.00;84.76
14269;BME280;7218;51.480;7.006;2023-04-02T01:02:31;99952.44;;;11.17;84.33
14269;BME280;7218;51.480;7.006;2023-04-02T01:05:00;99964.03;;;11.07;84.63
14269;BME280;7218;51.480;7.006;2023-04-02T01:07:38;99963.22;;;10.71;84.42
14269;BME280;7218;51.480;7.006;2023-04-02T01:10:22;99971.13;;;11.02;83.52
14269;BME280;7218;51.480;7.006;2023-04-02T01:12:59;99976.53;;;10.95;83.52
14269;BME280;7218;51.480;7.006;2023-04-02T01:15:32;99984.69;;;10.81;84.54
14269;BME280;7218;51.480;7.006;2023-04-02T01:18:25;99974.34;;;10.43;84.46
14269;BME280;7218;51.480;7.006;2023-04-02T01:21:08;99994.25;;;10.82;82.73
14269;BME280;7218;51.480;7.006;2023-04-02T01:23:47;99998.81;;;10.74;83.66
14269;BME280;7218;51.480;7.006;2023-04-02T01:26:27;100008.00;;;10.89;83.35
14269;BME280;7218;51.480;7.006;2023-04-02T01:29:02;100005.50;;;10.84;83.08
14269;BME280;7218;51.480;7.006;2023-04-02T01:31:31;100007.47;;;10.74;82.37
14269;BME280;7218;51.480;7.006;2023-04-02T01:33:59;100020.53;;;10.74;83.35
14269;BME280;7218;51.480;7.006;2023-04-02T01:36:36;100021.00;;;10.90;82.56
14269;BME280;7218;51.480;7.006;2023-04-02T01:39:20;100023.19;;;10.71;82.80
14269;BME280;7218;51.480;7.006;2023-04-02T01:41:57;100027.00;;;10.57;84.10
14269;BME280;7218;51.480;7.006;2023-04-02T01:44:32;100038.66;;;10.42;84.79
14269;BME280;7218;51.480;7.006;2023-04-02T01:47:06;100035.47;;;10.66;84.69
14269;BME280;7218;51.480;7.006;2023-04-02T01:49:35;100031.78;;;10.40;84.50
14269;BME280;7218;51.480;7.006;2023-04-02T01:52:04;100048.38;;;10.35;84.65
14269;BME280;7218;51.480;7.006;2023-04-02T01:54:32;100046.47;;;10.42;83.64
14269;BME280;7218;51.480;7.006;2023-04-02T01:57:02;100048.22;;;10.42;83.39
14269;BME280;7218;51.480;7.006;2023-04-02T01:59:32;100052.72;;;10.35;84.15
14269;BME280;7218;51.480;7.006;2023-04-02T02:02:01;100054.81;;;10.58;83.18
14269;BME280;7218;51.480;7.006;2023-04-02T02:04:29;100058.84;;;10.32;83.64
14269;BME280;7218;51.480;7.006;2023-04-02T02:06:58;100067.19;;;10.48;82.03
14269;BME280;7218;51.480;7.006;2023-04-02T02:09:28;100074.16;;;10.48;83.16
14269;BME280;7218;51.480;7.006;2023-04-02T02:11:56;100076.00;;;10.43;82.89
14269;BME280;7218;51.480;7.006;2023-04-02T02:14:25;100089.75;;;10.51;82.61
14269;BME280;7218;51.480;7.006;2023-04-02T02:16:56;100084.25;;;10.23;82.03
14269;BME280;7218;51.480;7.006;2023-04-02T02:19:28;100094.22;;;10.46;82.59
14269;BME280;7218;51.480;7.006;2023-04-02T02:22:07;100091.75;;;10.38;83.65
14269;BME280;7218;51.480;7.006;2023-04-02T02:24:35;100104.41;;;10.13;82.83
14269;BME280;7218;51.480;7.006;2023-04-02T02:27:33;100111.97;;;10.67;80.74
14269;BME280;7218;51.480;7.006;2023-04-02T02:30:11;100115.88;;;10.48;81.68
14269;BME280;7218;51.480;7.006;2023-04-02T02:32:46;100117.00;;;10.36;81.28
14269;BME280;7218;51.480;7.006;2023-04-02T02:35:19;100123.56;;;10.54;81.79
14269;BME280;7218;51.480;7.006;2023-04-02T02:37:51;100133.63;;;10.30;81.61
14269;BME280;7218;51.480;7.006;2023-04-02T02:40:25;100129.69;;;10.51;80.69
14269;BME280;7218;51.480;7.006;2023-04-02T02:42:56;100135.09;;;10.44;82.13
14269;BME280;7218;51.480;7.006;2023-04-02T02:45:27;100132.97;;;10.61;81.74
14269;BME280;7218;51.480;7.006;2023-04-02T02:47:56;100141.69;;;10.60;80.87
14269;BME280;7218;51.480;7.006;2023-04-02T02:50:26;100143.25;;;10.67;80.98
14269;BME280;7218;51.480;7.006;2023-04-02T02:52:57;100157.53;;;10.51;81.28
14269;BME280;7218;51.480;7.006;2023-04-02T02:55:28;100161.81;;;10.53;80.61
14269;BME280;7218;51.480;7.006;2023-04-02T02:57:58;100167.31;;;10.40;80.56
14269;BME280;7218;51.480;7.006;2023-04-02T03:00:28;100174.09;;;10.48;81.04
14269;BME280;7218;51.480;7.006;2023-04-02T03:02:56;100175.19;;;10.36;80.89
14269;BME280;7218;51.480;7.006;2023-04-02T03:05:27;100187.84;;;10.10;80.32
14269;BME280;7218;51.480;7.006;2023-04-02T03:07:56;100182.63;;;10.10;80.83
14269;BME280;7218;51.480;7.006;2023-04-02T03:10:30;100193.63;;;10.27;80.57
14269;BME280;7218;51.480;7.006;2023-04-02T03:13:04;100189.13;;;10.35;80.00
14269;BME280;7218;51.480;7.006;2023-04-02T03:15:37;100193.66;;;9.77;82.03
14269;BME280;7218;51.480;7.006;2023-04-02T03:18:11;100199.06;;;10.14;81.47
14269;BME280;7218;51.480;7.006;2023-04-02T03:20:46;100198.16;;;10.16;81.23
14269;BME280;7218;51.480;7.006;2023-04-02T03:23:18;100210.84;;;9.87;81.79
14269;BME280;7218;51.480;7.006;2023-04-02T03:25:51;100218.88;;;9.75;82.57
14269;BME280;7218;51.480;7.006;2023-04-02T03:28:25;100217.88;;;9.82;82.69
14269;BME280;7218;51.480;7.006;2023-04-02T03:30:57;100235.47;;;9.68;82.81
14269;BME280;7218;51.480;7.006;2023-04-02T03:33:30;100235.31;;;9.78;82.68
14269;BME280;7218;51.480;7.006;2023-04-02T03:36:01;100248.25;;;9.83;81.86
14269;BME280;7218;51.480;7.006;2023-04-02T03:38:31;100254.47;;;9.74;81.75
14269;BME280;7218;51.480;7.006;2023-04-02T03:41:06;100255.19;;;9.82;80.82
14269;BME280;7218;51.480;7.006;2023-04-02T03:43:39;100271.91;;;9.71;80.84
14269;BME280;7218;51.480;7.006;2023-04-02T03:46:16;100272.50;;;9.31;81.69
14269;BME280;7218;51.480;7.006;2023-04-02T03:48:51;100278.84;;;9.69;80.55
14269;BME280;7218;51.480;7.006;2023-04-02T03:51:21;100283.81;;;9.84;81.41
14269;BME280;7218;51.480;7.006;2023-04-02T03:53:49;100294.19;;;9.87;80.86
14269;BME280;7218;51.480;7.006;2023-04-02T03:56:23;100290.75;;;9.85;80.26
14269;BME280;7218;51.480;7.006;2023-04-02T03:58:55;100297.72;;;9.83;80.09
14269;BME280;7218;51.480;7.006;2023-04-02T04:01:32;100297.00;;;9.73;79.92
14269;BME280;7218;51.480;7.006;2023-04-02T04:04:04;100302.13;;;9.81;79.29
14269;BME280;7218;51.480;7.006;2023-04-02T04:06:34;100309.41;;;9.58;80.18
14269;BME280;7218;51.480;7.006;2023-04-02T04:09:06;100315.41;;;9.63;79.83
14269;BME280;7218;51.480;7.006;2023-04-02T04:11:35;100310.63;;;9.32;81.03
14269;BME280;7218;51.480;7.006;2023-04-02T04:14:06;100319.66;;;9.68;78.47
14269;BME280;7218;51.480;7.006;2023-04-02T04:16:41;100330.16;;;9.62;78.73
14269;BME280;7218;51.480;7.006;2023-04-02T04:19:15;100330.56;;;9.35;79.32
14269;BME280;7218;51.480;7.006;2023-04-02T04:21:44;100344.31;;;9.44;78.92
14269;BME280;7218;51.480;7.006;2023-04-02T04:24:16;100348.66;;;9.42;80.56
14269;BME280;7218;51.480;7.006;2023-04-02T04:26:50;100350.28;;;9.51;79.37
14269;BME280;7218;51.480;7.006;2023-04-02T04:29:33;100363.19;;;9.57;79.41
14269;BME280;7218;51.480;7.006;2023-04-02T04:32:14;100370.66;;;9.81;78.70
14269;BME280;7218;51.480;7.006;2023-04-02T04:34:46;100379.69;;;9.59;79.57
14269;BME280;7218;51.480;7.006;2023-04-02T04:37:24;100381.44;;;9.57;81.41
14269;BME280;7218;51.480;7.006;2023-04-02T04:39:55;100386.31;;;9.80;81.08
14269;BME280;7218;51.480;7.006;2023-04-02T04:42:24;100392.16;;;9.34;81.89
14269;BME280;7218;51.480;7.006;2023-04-02T04:44:57;100397.09;;;9.56;80.66
14269;BME280;7218;51.480;7.006;2023-04-02T04:47:28;100395.50;;;9.44;81.15
14269;BME280;7218;51.480;7.006;2023-04-02T04:50:03;100409.16;;;9.61;80.49
14269;BME280;7218;51.480;7.006;2023-04-02T04:52:35;100411.78;;;9.57;79.95
14269;BME280;7218;51.480;7.006;2023-04-02T04:55:03;100409.44;;;9.38;80.14
14269;BME280;7218;51.480;7.006;2023-04-02T04:57:32;100427.47;;;9.54;78.50
14269;BME280;7218;51.480;7.006;2023-04-02T05:00:04;100436.34;;;9.37;80.29
14269;BME280;7218;51.480;7.006;2023-04-02T05:02:38;100439.75;;;9.44;79.07
14269;BME280;7218;51.480;7.006;2023-04-02T05:05:18;100457.38;;;9.21;78.34
14269;BME280;7218;51.480;7.006;2023-04-02T05:07:49;100459.22;;;9.11;79.19
14269;BME280;7218;51.480;7.006;2023-04-02T05:10:22;100465.94;;;9.27;79.50
14269;BME280;7218;51.480;7.006;2023-04-02T05:12:55;100469.47;;;9.26;78.51
14269;BME280;7218;51.480;7.006;2023-04-02T05:15:27;100475.38;;;8.47;80.14
14269;BME280;7218;51.480;7.006;2023-04-02T05:18:13;100481.06;;;8.92;79.48
14269;BME280;7218;51.480;7.006;2023-04-02T05:20:47;100485.31;;;9.00;79.85
14269;BME280;7218;51.480;7.006;2023-04-02T05:23:18;100487.69;;;9.25;79.39
14269;BME280;7218;51.480;7.006;2023-04-02T05:25:52;100491.91;;;9.32;77.07
14269;BME280;7218;51.480;7.006;2023-04-02T05:28:22;100493.94;;;9.05;78.51
14269;BME280;7218;51.480;7.006;2023-04-02T05:30:53;100498.94;;;9.25;79.06
14269;BME280;7218;51.480;7.006;2023-04-02T05:33:23;100508.56;;;9.17;79.19
14269;BME280;7218;51.480;7.006;2023-04-02T05:35:56;100508.44;;;9.29;79.09
14269;BME280;7218;51.480;7.006;2023-04-02T05:38:26;100517.94;;;9.35;77.93
14269;BME280;7218;51.480;7.006;2023-04-02T05:40:59;100527.66;;;9.16;78.02
14269;BME280;7218;51.480;7.006;2023-04-02T05:43:30;100527.69;;;9.15;77.77
14269;BME280;7218;51.480;7.006;2023-04-02T05:46:01;100533.66;;;9.23;77.62
14269;BME280;7218;51.480;7.006;2023-04-02T05:48:31;100538.06;;;9.16;78.92
14269;BME280;7218;51.480;7.006;2023-04-02T05:51:02;100541.47;;;9.23;78.44
14269;BME280;7218;51.480;7.006;2023-04-02T05:53:33;100545.75;;;9.28;78.01
14269;BME280;7218;51.480;7.006;2023-04-02T05:56:03;100544.25;;;9.06;78.77
14269;BME280;7218;51.480;7.006;2023-04-02T05:58:34;100553.66;;;9.19;76.98
14269;BME280;7218;51.480;7.006;2023-04-02T06:01:28;100559.69;;;9.23;77.38
14269;BME280;7218;51.480;7.006;2023-04-02T06:04:01;100566.72;;;9.12;77.42
14269;BME280;7218;51.480;7.006;2023-04-02T06:06:42;100581.41;;;9.17;77.65
14269;BME280;7218;51.480;7.006;2023-04-02T06:09:14;100583.25;;;9.06;77.75
14269;BME280;7218;51.480;7.006;2023-04-02T06:11:45;100596.31;;;9.01;77.53
14269;BME280;7218;51.480;7.006;2023-04-02T06:14:14;100593.78;;;8.88;77.57
14269;BME280;7218;51.480;7.006;2023-04-02T06:16:43;100602.44;;;8.90;77.60
14269;BME280;7218;51.480;7.006;2023-04-02T06:19:15;100620.88;;;8.52;81.08
14269;BME280;7218;51.480;7.006;2023-04-02T06:21:46;100631.28;;;8.53;78.97
14269;BME280;7218;51.480;7.006;2023-04-02T06:24:17;100631.94;;;8.87;77.25
14269;BME280;7218;51.480;7.006;2023-04-02T06:26:49;100630.22;;;8.86;77.77
14269;BME280;7218;51.480;7.006;2023-04-02T06:29:23;100636.31;;;8.81;77.48
14269;BME280;7218;51.480;7.006;2023-04-02T06:31:55;100635.47;;;8.79;77.28
14269;BME280;7218;51.480;7.006;2023-04-02T06:34:24;100641.63;;;8.62;76.24
14269;BME280;7218;51.480;7.006;2023-04-02T06:36:57;100651.84;;;8.94;75.90
14269;BME280;7218;51.480;7.006;2023-04-02T06:39:25;100651.03;;;8.83;76.28
14269;BME280;7218;51.480;7.006;2023-04-02T06:41:55;100657.97;;;8.86;75.65
14269;BME280;7218;51.480;7.006;2023-04-02T06:44:24;100664.97;;;8.75;75.73
14269;BME280;7218;51.480;7.006;2023-04-02T06:46:57;100669.13;;;9.01;75.49
14269;BME280;7218;51.480;7.006;2023-04-02T06:49:29;100674.53;;;8.62;75.01
14269;BME280;7218;51.480;7.006;2023-04-02T06:52:00;100692.63;;;8.82;75.28
14269;BME280;7218;51.480;7.006;2023-04-02T06:54:28;100682.19;;;8.91;74.23
14269;BME280;7218;51.480;7.006;2023-04-02T06:56:55;100693.69;;;8.50;74.80
14269;BME280;7218;51.480;7.006;2023-04-02T06:59:22;100705.72;;;8.68;76.23
14269;BME280;7218;51.480;7.006;2023-04-02T07:01:51;100697.91;;;8.70;75.48
14269;BME280;7218;51.480;7.006;2023-04-02T07:04:19;100708.16;;;9.01;75.51
14269;BME280;7218;51.480;7.006;2023-04-02T07:06:46;100710.88;;;8.80;74.90
14269;BME280;7218;51.480;7.006;2023-04-02T07:09:14;100707.31;;;8.96;74.01
14269;BME280;7218;51.480;7.006;2023-04-02T07:11:41;100710.84;;;8.83;75.30
14269;BME280;7218;51.480;7.006;2023-04-02T07:14:10;100721.91;;;9.17;74.68
14269;BME280;7218;51.480;7.006;2023-04-02T07:16:36;100728.81;;;9.26;73.82
14269;BME280;7218;51.480;7.006;2023-04-02T07:19:03;100737.41;;;9.32;73.66
14269;BME280;7218;51.480;7.006;2023-04-02T07:21:30;100752.13;;;9.41;74.41
14269;BME280;7218;51.480;7.006;2023-04-02T07:23:57;100754.06;;;9.10;73.30
14269;BME280;7218;51.480;7.006;2023-04-02T07:26:26;100754.66;;;9.48;72.03
14269;BME280;7218;51.480;7.006;2023-04-02T07:28:53;100757.31;;;9.39;73.06
14269;BME280;7218;51.480;7.006;2023-04-02T07:31:22;100765.09;;;9.45;73.45
14269;BME280;7218;51.480;7.006;2023-04-02T07:33:50;100771.91;;;9.66;71.00
14269;BME280;7218;51.480;7.006;2023-04-02T07:36:19;100773.47;;;9.84;70.61
14269;BME280;7218;51.480;7.006;2023-04-02T07:38:46;100779.88;;;9.40;70.29
14269;BME280;7218;51.480;7.006;2023-04-02T07:41:17;100782.56;;;9.30;70.86
14269;BME280;7218;51.480;7.006;2023-04-02T07:43:45;100786.88;;;9.31;70.33
14269;BME280;7218;51.480;7.006;2023-04-02T07:46:12;100793.91;;;9.14;72.49
14269;BME280;7218;51.480;7.006;2023-04-02T07:48:42;100790.44;;;9.15;70.98
14269;BME280;7218;51.480;7.006;2023-04-02T07:51:17;100804.94;;;9.54;70.85
14269;BME280;7218;51.480;7.006;2023-04-02T07:53:44;100804.16;;;9.44;70.31
14269;BME280;7218;51.480;7.006;2023-04-02T07:56:17;100802.34;;;9.55;69.14
14269;BME280;7218;51.480;7.006;2023-04-02T07:58:45;100803.28;;;9.45;71.01
14269;BME280;7218;51.480;7.006;2023-04-02T08:01:16;100819.81;;;9.36;70.69
14269;BME280;7218;51.480;7.006;2023-04-02T08:03:43;100825.81;;;9.47;71.95
14269;BME280;7218;51.480;7.006;2023-04-02T08:06:10;100817.19;;;9.39;70.24
14269;BME280;7218;51.480;7.006;2023-04-02T08:08:37;100825.81;;;9.49;69.39
14269;BME280;7218;51.480;7.006;2023-04-02T08:11:04;100837.00;;;9.63;70.05
14269;BME280;7218;51.480;7.006;2023-04-02T08:13:31;100838.00;;;9.45;68.87
14269;BME280;7218;51.480;7.006;2023-04-02T08:15:59;100844.84;;;9.60;68.85
14269;BME280;7218;51.480;7.006;2023-04-02T08:18:26;100852.63;;;9.66;68.56
14269;BME280;7218;51.480;7.006;2023-04-02T08:20:53;100862.19;;;9.57;68.09
14269;BME280;7218;51.480;7.006;2023-04-02T08:23:20;100868.03;;;9.92;67.17
14269;BME280;7218;51.480;7.006;2023-04-02T08:25:47;100874.13;;;9.94;67.66
14269;BME280;7218;51.480;7.006;2023-04-02T08:28:14;100867.41;;;9.58;67.90
14269;BME280;7218;51.480;7.006;2023-04-02T08:30:41;100876.94;;;9.61;66.63
14269;BME280;7218;51.480;7.006;2023-04-02T08:33:10;100876.06;;;9.63;66.80
14269;BME280;7218;51.480;7.006;2023-04-02T08:35:37;100881.16;;;9.80;68.12
14269;BME280;7218;51.480;7.006;2023-04-02T08:38:04;100878.66;;;9.63;67.63
14269;BME280;7218;51.480;7.006;2023-04-02T08:40:33;100881.06;;;9.95;65.77
14269;BME280;7218;51.480;7.006;2023-04-02T08:43:13;100885.44;;;9.87;65.34
14269;BME280;7218;51.480;7.006;2023-04-02T08:45:52;100896.53;;;10.18;64.87
14269;BME280;7218;51.480;7.006;2023-04-02T08:48:26;100900.22;;;9.85;64.93
14269;BME280;7218;51.480;7.006;2023-04-02T08:50:55;100901.94;;;9.89;65.19
14269;BME280;7218;51.480;7.006;2023-04-02T08:53:30;100910.28;;;10.38;64.59
14269;BME280;7218;51.480;7.006;2023-04-02T08:56:01;100919.16;;;10.08;62.60
14269;BME280;7218;51.480;7.006;2023-04-02T08:58:37;100927.63;;;10.42;64.73
14269;BME280;7218;51.480;7.006;2023-04-02T09:01:06;100927.81;;;10.13;63.96
14269;BME280;7218;51.480;7.006;2023-04-02T09:03:44;100941.28;;;10.70;62.24
14269;BME280;7218;51.480;7.006;2023-04-02T09:06:15;100931.09;;;10.43;63.42
14269;BME280;7218;51.480;7.006;2023-04-02T09:08:44;100938.13;;;10.31;61.71
14269;BME280;7218;51.480;7.006;2023-04-02T09:11:21;100946.56;;;10.62;62.08
14269;BME280;7218;51.480;7.006;2023-04-02T09:13:53;100956.41;;;10.28;63.89
14269;BME280;7218;51.480;7.006;2023-04-02T09:16:23;100944.53;;;10.93;63.47
14269;BME280;7218;51.480;7.006;2023-04-02T09:18:59;100962.22;;;10.62;62.58
14269;BME280;7218;51.480;7.006;2023-04-02T09:21:32;100963.81;;;10.77;60.86
14269;BME280;7218;51.480;7.006;2023-04-02T09:24:00;100974.38;;;10.62;63.44
14269;BME280;7218;51.480;7.006;2023-04-02T09:26:31;100973.34;;;10.83;64.68
14269;BME280;7218;51.480;7.006;2023-04-02T09:29:01;100979.22;;;11.04;62.32
14269;BME280;7218;51.480;7.006;2023-04-02T09:31:33;100986.84;;;11.21;60.61
14269;BME280;7218;51.480;7.006;2023-04-02T09:34:26;100990.38;;;11.17;60.04
14269;BME280;7218;51.480;7.006;2023-04-02T09:36:54;100987.78;;;11.17;60.28
14269;BME280;7218;51.480;7.006;2023-04-02T09:39:21;100991.25;;;11.17;58.90
14269;BME280;7218;51.480;7.006;2023-04-02T09:41:50;100994.56;;;11.32;60.43
14269;BME280;7218;51.480;7.006;2023-04-02T09:44:22;100998.06;;;11.34;59.42
14269;BME280;7218;51.480;7.006;2023-04-02T09:46:51;100997.66;;;11.67;58.75
14269;BME280;7218;51.480;7.006;2023-04-02T09:49:22;101016.50;;;11.18;57.18
14269;BME280;7218;51.480;7.006;2023-04-02T09:52:17;101023.81;;;11.64;57.73
14269;BME280;7218;51.480;7.006;2023-04-02T09:54:45;101019.09;;;11.20;57.26
14269;BME280;7218;51.480;7.006;2023-04-02T09:57:20;101029.94;;;11.63;57.35
14269;BME280;7218;51.480;7.006;2023-04-02T10:00:09;101031.91;;;11.41;58.21
14269;BME280;7218;51.480;7.006;2023-04-02T10:02:37;101032.91;;;11.27;57.10
14269;BME280;7218;51.480;7.006;2023-04-02T10:05:14;101042.34;;;11.43;57.83
14269;BME280;7218;51.480;7.006;2023-04-02T10:07:44;101052.78;;;11.43;58.81
14269;BME280;7218;51.480;7.006;2023-04-02T10:10:19;101049.59;;;11.12;57.75
14269;BME280;7218;51.480;7.006;2023-04-02T10:12:50;101057.03;;;11.53;56.64
14269;BME280;7218;51.480;7.006;2023-04-02T10:15:26;101061.69;;;11.22;57.73
14269;BME280;7218;51.480;7.006;2023-04-02T10:18:01;101072.09;;;11.28;57.36
14269;BME280;7218;51.480;7.006;2023-04-02T10:20:33;101068.91;;;10.93;59.69
14269;BME280;7218;51.480;7.006;2023-04-02T10:23:01;101068.13;;;10.83;57.95
14269;BME280;7218;51.480;7.006;2023-04-02T10:25:31;101081.25;;;10.75;59.86
14269;BME280;7218;51.480;7.006;2023-04-02T10:28:08;101086.16;;;11.12;60.79
14269;BME280;7218;51.480;7.006;2023-04-02T10:30:46;101093.06;;;11.16;60.00
14269;BME280;7218;51.480;7.006;2023-04-02T10:33:22;101082.28;;;10.47;60.16
14269;BME280;7218;51.480;7.006;2023-04-02T10:35:56;101092.47;;;10.85;59.95
14269;BME280;7218;51.480;7.006;2023-04-02T10:38:36;101099.28;;;11.04;58.48
14269;BME280;7218;51.480;7.006;2023-04-02T10:41:14;101102.81;;;10.97;58.15
14269;BME280;7218;51.480;7.006;2023-04-02T10:43:57;101107.63;;;11.43;58.50
14269;BME280;7218;51.480;7.006;2023-04-02T10:46:29;101115.47;;;11.44;59.06
14269;BME280;7218;51.480;7.006;2023-04-02T10:49:09;101122.81;;;11.00;57.08
14269;BME280;7218;51.480;7.006;2023-04-02T10:51:45;101120.78;;;11.32;58.94
14269;BME280;7218;51.480;7.006;2023-04-02T10:57:19;101125.25;;;11.16;56.71
14269;BME280;7218;51.480;7.006;2023-04-02T10:59:53;101130.53;;;11.13;59.21
14269;BME280;7218;51.480;7.006;2023-04-02T11:02:30;101145.94;;;11.42;57.29
14269;BME280;7218;51.480;7.006;2023-04-02T11:05:04;101147.63;;;11.48;55.12
14269;BME280;7218;51.480;7.006;2023-04-02T11:07:44;101152.75;;;11.58;55.25
14269;BME280;7218;51.480;7.006;2023-04-02T11:10:16;101163.09;;;11.68;56.22
14269;BME280;7218;51.480;7.006;2023-04-02T11:12:50;101162.19;;;11.72;54.67
14269;BME280;7218;51.480;7.006;2023-04-02T11:15:18;101165.84;;;11.54;54.54
14269;BME280;7218;51.480;7.006;2023-04-02T11:17:46;101165.09;;;11.41;55.85
14269;BME280;7218;51.480;7.006;2023-04-02T11:20:41;101176.97;;;11.77;55.73
14269;BME280;7218;51.480;7.006;2023-04-02T11:23:10;101174.63;;;11.47;55.81
14269;BME280;7218;51.480;7.006;2023-04-02T11:25:38;101182.38;;;11.56;55.91
14269;BME280;7218;51.480;7.006;2023-04-02T11:28:25;101188.41;;;11.61;54.25
14269;BME280;7218;51.480;7.006;2023-04-02T11:30:53;101185.72;;;11.72;54.12
14269;BME280;7218;51.480;7.006;2023-04-02T11:33:36;101188.97;;;11.96;53.11
14269;BME280;7218;51.480;7.006;2023-04-02T11:42:27;101192.16;;;12.24;52.53
14269;BME280;7218;51.480;7.006;2023-04-02T11:44:55;101194.91;;;12.15;52.26
14269;BME280;7218;51.480;7.006;2023-04-02T11:47:24;101213.91;;;12.26;49.64
14269;BME280;7218;51.480;7.006;2023-04-02T11:50:00;101202.50;;;12.35;51.66
14269;BME280;7218;51.480;7.006;2023-04-02T11:52:30;101198.78;;;12.51;51.87
14269;BME280;7218;51.480;7.006;2023-04-02T11:55:14;101209.81;;;12.76;50.83
14269;BME280;7218;51.480;7.006;2023-04-02T12:01:28;101209.47;;;13.00;48.74
14269;BME280;7218;51.480;7.006;2023-04-02T12:07:46;101219.56;;;12.65;48.56
14269;BME280;7218;51.480;7.006;2023-04-02T12:10:22;101234.72;;;12.35;48.32
14269;BME280;7218;51.480;7.006;2023-04-02T12:12:50;101232.78;;;12.54;49.08
14269;BME280;7218;51.480;7.006;2023-04-02T12:15:36;101233.63;;;12.56;47.93
14269;BME280;7218;51.480;7.006;2023-04-02T12:18:11;101242.44;;;12.49;47.44
14269;BME280;7218;51.480;7.006;2023-04-02T12:20:39;101242.28;;;12.61;46.06
14269;BME280;7218;51.480;7.006;2023-04-02T12:23:16;101246.69;;;12.58;45.96
14269;BME280;7218;51.480;7.006;2023-04-02T12:25:53;101249.19;;;12.68;47.58
14269;BME280;7218;51.480;7.006;2023-04-02T12:28:21;101251.84;;;12.64;47.49
14269;BME280;7218;51.480;7.006;2023-04-02T12:30:48;101253.41;;;12.80;46.17
14269;BME280;7218;51.480;7.006;2023-04-02T12:33:26;101259.53;;;12.77;47.81
14269;BME280;7218;51.480;7.006;2023-04-02T12:35:56;101263.50;;;12.35;47.89
14269;BME280;7218;51.480;7.006;2023-04-02T12:38:25;101275.81;;;12.29;46.67
14269;BME280;7218;51.480;7.006;2023-04-02T12:40:54;101274.16;;;12.16;49.09
14269;BME280;7218;51.480;7.006;2023-04-02T12:43:23;101280.19;;;12.25;48.86
14269;BME280;7218;51.480;7.006;2023-04-02T12:45:51;101277.66;;;12.19;48.03
14269;BME280;7218;51.480;7.006;2023-04-02T12:48:18;101281.41;;;11.89;49.41
14269;BME280;7218;51.480;7.006;2023-04-02T12:50:45;101281.38;;;11.92;49.68
14269;BME280;7218;51.480;7.006;2023-04-02T12:53:19;101274.97;;;12.24;50.07
14269;BME280;7218;51.480;7.006;2023-04-02T12:55:47;101285.16;;;12.49;51.56
14269;BME280;7218;51.480;7.006;2023-04-02T12:58:25;101280.88;;;12.44;48.30
14269;BME280;7218;51.480;7.006;2023-04-02T13:01:08;101292.38;;;12.29;47.97
14269;BME280;7218;51.480;7.006;2023-04-02T13:03:35;101290.94;;;11.95;49.11
14269;BME280;7218;51.480;7.006;2023-04-02T13:06:02;101294.44;;;11.94;48.99
14269;BME280;7218;51.480;7.006;2023-04-02T13:08:30;101298.66;;;12.05;51.06
14269;BME280;7218;51.480;7.006;2023-04-02T13:11:03;101298.72;;;12.02;48.22
14269;BME280;7218;51.480;7.006;2023-04-02T13:13:34;101300.41;;;12.08;48.91
14269;BME280;7218;51.480;7.006;2023-04-02T13:16:04;101300.06;;;12.43;48.19
14269;BME280;7218;51.480;7.006;2023-04-02T13:18:32;101295.09;;;12.19;48.11
14269;BME280;7218;51.480;7.006;2023-04-02T13:21:01;101298.31;;;12.40;46.51
14269;BME280;7218;51.480;7.006;2023-04-02T13:23:33;101301.59;;;12.62;46.53
14269;BME280;7218;51.480;7.006;2023-04-02T13:26:10;101294.97;;;13.03;47.00
14269;BME280;7218;51.480;7.006;2023-04-02T13:28:38;101299.34;;;13.02;45.11
14269;BME280;7218;51.480;7.006;2023-04-02T13:31:05;101293.81;;;13.26;46.52
14269;BME280;7218;51.480;7.006;2023-04-02T13:33:31;101307.63;;;13.36;46.81
14269;BME280;7218;51.480;7.006;2023-04-02T13:35:58;101298.69;;;13.51;44.31
14269;BME280;7218;51.480;7.006;2023-04-02T13:38:24;101294.84;;;15.13;41.95
14269;BME280;7218;51.480;7.006;2023-04-02T13:40:51;101293.66;;;15.26;39.08
14269;BME280;7218;51.480;7.006;2023-04-02T13:43:19;101298.72;;;15.35;39.87
14269;BME280;7218;51.480;7.006;2023-04-02T13:45:49;101298.44;;;17.41;37.57
14269;BME280;7218;51.480;7.006;2023-04-02T13:48:17;101286.88;;;19.20;34.77